Crazy Horse, South Dakota
Current Conditions -  °F | °C
As of 4:53 AM on Sunday 23 Nov 2014 (Local Time) from KCUT Reporting Station
Clear Clear  
Wind Chill: 20°   Ceiling: Unl
Heat Index: 29°   Visibility: 10mi
Dew Point: 12°   Wind: 10mph
Humidity: 49%   Direction: 320°NW
Pressure: 29.6"   Gusts: 20mph
Location:  43.6653°N, 103.766°W
Report Text: KCUT 231153Z AUTO 32009G17KT 290V360 10SM CLR M02/M11 A2960 RMK AO2 SLP031 T10171111 10011 21022 51010
Loading
Personal Weather Stations






























Interactive Weather Map New forecast layout! Learn more

10-Day Weather Forecast

Advertisements
Track Severe Weather on mobile